createdAt,value
2023-04-22T00:02:59.939Z,98682.14
2023-04-22T00:06:16.887Z,98683.98
2023-04-22T00:09:34.332Z,98677.34
2023-04-22T00:12:51.047Z,98680.20
2023-04-22T00:16:08.063Z,98679.53
2023-04-22T00:19:24.706Z,98679.70
2023-04-22T00:22:41.089Z,98679.38
2023-04-22T00:25:57.620Z,98670.29
2023-04-22T00:29:14.013Z,98674.90
2023-04-22T00:32:31.650Z,98667.16
2023-04-22T00:35:49.363Z,98668.58
2023-04-22T00:39:07.369Z,98670.55
2023-04-22T00:42:24.376Z,98667.13
2023-04-22T00:45:44.214Z,98668.11
2023-04-22T00:49:02.158Z,98662.80
2023-04-22T00:52:18.892Z,98666.42
2023-04-22T00:55:36.718Z,98676.45
2023-04-22T00:58:54.364Z,98670.90
2023-04-22T01:02:12.878Z,98672.52
2023-04-22T01:05:31.201Z,98673.72
2023-04-22T01:08:48.117Z,98673.36
2023-04-22T01:12:05.458Z,98671.88
2023-04-22T01:15:23.044Z,98674.30
2023-04-22T01:18:40.290Z,98673.42
2023-04-22T01:21:58.572Z,98662.81
2023-04-22T01:25:17.257Z,98662.75
2023-04-22T01:28:34.344Z,98670.25
2023-04-22T01:31:51.897Z,98672.27
2023-04-22T01:35:09.686Z,98678.70
2023-04-22T01:38:27.179Z,98666.64
2023-04-22T01:41:44.436Z,98673.51
2023-04-22T01:45:01.956Z,98675.30
2023-04-22T01:48:18.504Z,98675.27
2023-04-22T01:51:35.554Z,98676.92
2023-04-22T01:54:52.877Z,98674.71
2023-04-22T01:58:09.169Z,98669.61
2023-04-22T02:01:27.431Z,98678.16
2023-04-22T02:04:44.418Z,98669.87
2023-04-22T02:08:04.211Z,98667.45
2023-04-22T02:11:20.772Z,98667.57
2023-04-22T02:14:37.078Z,98663.80
2023-04-22T02:17:53.999Z,98656.05
2023-04-22T02:21:10.914Z,98656.27
2023-04-22T02:24:29.499Z,98657.61
2023-04-22T02:27:47.935Z,98666.95
2023-04-22T02:31:05.226Z,98660.33
2023-04-22T02:34:21.768Z,98659.16
2023-04-22T02:37:38.715Z,98649.44
2023-04-22T02:40:55.946Z,98661.55
2023-04-22T02:44:13.122Z,98656.00
2023-04-22T02:47:29.868Z,98655.16
2023-04-22T02:50:46.465Z,98652.84
2023-04-22T02:54:03.145Z,98652.84
2023-04-22T02:57:19.744Z,98663.16
2023-04-22T03:00:37.578Z,98663.44
2023-04-22T03:03:55.409Z,98655.63
2023-04-22T03:07:12.314Z,98654.45
2023-04-22T03:10:28.976Z,98659.53
2023-04-22T03:13:45.333Z,98657.43
2023-04-22T03:17:02.687Z,98655.48
2023-04-22T03:20:20.885Z,98669.77
2023-04-22T03:23:37.926Z,98667.13
2023-04-22T03:26:54.385Z,98665.25
2023-04-22T03:30:12.935Z,98670.05
2023-04-22T03:33:30.314Z,98665.47
2023-04-22T03:36:51.305Z,98676.30
2023-04-22T03:40:08.781Z,98675.45
2023-04-22T03:43:26.608Z,98669.07
2023-04-22T03:46:45.783Z,98671.05
2023-04-22T03:50:02.286Z,98669.02
2023-04-22T03:53:20.124Z,98674.27
2023-04-22T03:56:37.722Z,98672.30
2023-04-22T03:59:54.136Z,98671.86
2023-04-22T04:03:12.117Z,98685.16
2023-04-22T04:06:29.318Z,98678.46
2023-04-22T04:09:47.204Z,98685.47
2023-04-22T04:13:04.066Z,98679.73
2023-04-22T04:16:22.839Z,98691.10
2023-04-22T04:19:42.298Z,98690.51
2023-04-22T04:22:59.926Z,98694.48
2023-04-22T04:26:17.579Z,98698.99
2023-04-22T04:29:36.764Z,98697.55
2023-04-22T04:32:55.503Z,98692.46
2023-04-22T04:36:14.763Z,98690.94
2023-04-22T04:39:32.385Z,98691.38
2023-04-22T04:42:50.972Z,98698.50
2023-04-22T04:46:09.447Z,98696.23
2023-04-22T04:49:31.536Z,98700.00
2023-04-22T04:52:49.822Z,98702.14
2023-04-22T04:56:08.561Z,98704.52
2023-04-22T04:59:26.585Z,98714.19
2023-04-22T05:02:43.709Z,98705.84
2023-04-22T05:06:00.677Z,98707.02
2023-04-22T05:09:18.473Z,98713.98
2023-04-22T05:12:36.158Z,98710.27
2023-04-22T05:15:54.532Z,98707.84
2023-04-22T05:19:13.786Z,98715.30
2023-04-22T05:22:31.207Z,98713.84
2023-04-22T05:25:49.176Z,98717.48
2023-04-22T05:29:07.909Z,98713.70
2023-04-22T05:32:26.302Z,98717.84
2023-04-22T05:35:45.561Z,98715.02
2023-04-22T05:39:06.998Z,98713.50
2023-04-22T05:42:30.036Z,98720.22
2023-04-22T05:45:52.645Z,98719.08
2023-04-22T05:49:11.211Z,98716.85
2023-04-22T05:52:46.232Z,98723.03
2023-04-22T05:56:04.792Z,98720.92
2023-04-22T05:59:22.207Z,98729.05
2023-04-22T06:02:46.946Z,98724.81
2023-04-22T06:06:06.011Z,98728.98
2023-04-22T06:09:22.845Z,98725.31
2023-04-22T06:12:41.730Z,98735.88
2023-04-22T06:15:58.749Z,98737.55
2023-04-22T06:19:16.971Z,98734.08
2023-04-22T06:22:33.510Z,98739.36
2023-04-22T06:25:50.755Z,98739.03
2023-04-22T06:29:08.053Z,98739.59
2023-04-22T06:32:25.694Z,98749.61
2023-04-22T06:35:42.282Z,98739.56
2023-04-22T06:38:58.672Z,98743.59
2023-04-22T06:42:17.447Z,98743.09
2023-04-22T06:45:38.382Z,98738.04
2023-04-22T06:49:12.681Z,98749.21
2023-04-22T06:52:48.805Z,98748.25
2023-04-22T06:56:06.164Z,98747.63
2023-04-22T06:59:23.490Z,98744.16
2023-04-22T07:02:39.780Z,98742.68
2023-04-22T07:05:56.201Z,98753.34
2023-04-22T07:09:13.536Z,98746.02
2023-04-22T07:12:31.013Z,98752.27
2023-04-22T07:15:50.286Z,98752.89
2023-04-22T07:19:06.897Z,98760.54
2023-04-22T07:22:23.384Z,98761.53
2023-04-22T07:25:40.148Z,98755.29
2023-04-22T07:28:56.606Z,98760.77
2023-04-22T07:32:13.131Z,98769.80
2023-04-22T07:35:29.572Z,98774.38
2023-04-22T07:38:46.166Z,98769.06
2023-04-22T07:42:03.129Z,98780.02
2023-04-22T07:45:20.457Z,98776.46
2023-04-22T07:48:37.419Z,98777.38
2023-04-22T07:51:54.142Z,98777.01
2023-04-22T07:55:11.092Z,98787.03
2023-04-22T07:58:27.517Z,98785.98
2023-04-22T08:01:43.878Z,98780.41
2023-04-22T08:05:00.250Z,98784.78
2023-04-22T08:08:17.340Z,98785.37
2023-04-22T08:11:34.959Z,98786.14
2023-04-22T08:14:52.298Z,98782.44
2023-04-22T08:18:08.695Z,98788.48
2023-04-22T08:21:28.379Z,98794.13
2023-04-22T08:24:44.623Z,98804.92
2023-04-22T08:28:01.276Z,98792.52
2023-04-22T08:31:17.631Z,98802.47
2023-04-22T08:34:34.031Z,98800.11
2023-04-22T08:37:50.468Z,98797.44
2023-04-22T08:41:07.580Z,98796.91
2023-04-22T08:44:24.671Z,98791.44
2023-04-22T08:47:42.765Z,98803.40
2023-04-22T08:51:01.520Z,98802.86
2023-04-22T08:54:18.022Z,98806.09
2023-04-22T08:57:35.224Z,98805.55
2023-04-22T09:00:52.539Z,98792.80
2023-04-22T09:04:10.729Z,98787.66
2023-04-22T09:07:31.313Z,98787.21
2023-04-22T09:10:48.598Z,98797.37
2023-04-22T09:14:05.172Z,98793.66
2023-04-22T09:17:23.384Z,98786.73
2023-04-22T09:20:40.343Z,98790.88
2023-04-22T09:24:00.465Z,98781.41
2023-04-22T09:27:17.168Z,98794.58
2023-04-22T09:30:37.536Z,98783.22
2023-04-22T09:34:00.003Z,98772.61
2023-04-22T09:37:17.347Z,98762.80
2023-04-22T09:40:36.739Z,98771.96
2023-04-22T09:43:53.483Z,98757.40
2023-04-22T09:47:11.565Z,98750.60
2023-04-22T09:50:33.390Z,98745.58
2023-04-22T09:53:49.777Z,98758.42
2023-04-22T09:57:07.873Z,98748.59
2023-04-22T10:00:26.714Z,98743.59
2023-04-22T10:03:43.254Z,98744.75
2023-04-22T10:07:03.346Z,98739.08
2023-04-22T10:10:20.405Z,98744.21
2023-04-22T10:13:37.417Z,98737.20
2023-04-22T10:16:56.371Z,98738.56
2023-04-22T10:20:18.706Z,98729.34
2023-04-22T10:23:38.123Z,98724.36
2023-04-22T10:27:03.830Z,98726.74
2023-04-22T10:30:39.244Z,98715.08
2023-04-22T10:33:55.729Z,98721.59
2023-04-22T10:37:16.578Z,98720.10
2023-04-22T10:40:32.853Z,98714.52
2023-04-22T10:43:54.957Z,98712.36
2023-04-22T10:47:11.387Z,98716.19
2023-04-22T10:50:32.184Z,98708.64
2023-04-22T10:53:48.874Z,98700.95
2023-04-22T10:57:12.974Z,98705.36
2023-04-22T11:00:54.192Z,98697.95
2023-04-22T11:04:29.643Z,98698.66
2023-04-22T11:07:46.469Z,98688.98
2023-04-22T11:11:06.208Z,98688.01
2023-04-22T11:14:23.642Z,98686.59
2023-04-22T11:17:41.202Z,98693.71
2023-04-22T11:20:59.506Z,98674.79
2023-04-22T11:24:19.020Z,98679.92
2023-04-22T11:27:36.180Z,98687.39
2023-04-22T11:30:53.194Z,98675.87
2023-04-22T11:34:11.577Z,98669.24
2023-04-22T11:37:31.960Z,98668.33
2023-04-22T11:40:50.762Z,98656.06
2023-04-22T11:44:04.946Z,98659.23
2023-04-22T11:47:20.987Z,98653.84
2023-04-22T11:50:40.145Z,98647.74
2023-04-22T11:54:01.797Z,98644.41
2023-04-22T11:57:18.841Z,98648.73
2023-04-22T12:00:41.332Z,98634.05
2023-04-22T12:04:01.260Z,98637.64
2023-04-22T12:07:17.877Z,98637.45
2023-04-22T12:10:34.929Z,98637.00
2023-04-22T12:13:55.083Z,98626.03
2023-04-22T12:17:17.388Z,98629.20
2023-04-22T12:20:40.688Z,98631.45
2023-04-22T12:23:59.928Z,98631.96
2023-04-22T12:27:16.441Z,98631.86
2023-04-22T12:30:32.706Z,98627.88
2023-04-22T12:33:49.945Z,98630.22
2023-04-22T12:37:07.976Z,98626.23
2023-04-22T12:40:24.377Z,98610.66
2023-04-22T12:43:41.719Z,98613.26
2023-04-22T12:46:58.552Z,98610.31
2023-04-22T12:50:16.831Z,98605.41
2023-04-22T12:53:33.795Z,98600.86
2023-04-22T12:56:52.930Z,98596.13
2023-04-22T13:00:11.832Z,98602.09
2023-04-22T13:03:28.697Z,98602.09
2023-04-22T13:06:45.378Z,98596.00
2023-04-22T13:10:01.718Z,98592.89
2023-04-22T13:13:19.283Z,98583.52
2023-04-22T13:16:35.995Z,98579.78
2023-04-22T13:19:52.849Z,98580.25
2023-04-22T13:23:10.613Z,98578.78
2023-04-22T13:26:29.830Z,98581.38
2023-04-22T13:29:46.818Z,98575.17
2023-04-22T13:33:03.222Z,98576.59
2023-04-22T13:36:19.627Z,98572.70
2023-04-22T13:39:36.985Z,98566.20
2023-04-22T13:42:53.308Z,98579.20
2023-04-22T13:46:09.924Z,98560.31
2023-04-22T13:49:28.136Z,98570.22
2023-04-22T13:52:45.168Z,98570.22
2023-04-22T13:56:01.463Z,98563.95
2023-04-22T13:59:17.964Z,98558.59
2023-04-22T14:02:34.292Z,98565.81
2023-04-22T14:05:50.793Z,98562.31
2023-04-22T14:09:08.023Z,98552.16
2023-04-22T14:12:24.587Z,98551.91
2023-04-22T14:15:41.006Z,98552.47
2023-04-22T14:18:57.387Z,98552.16
2023-04-22T14:22:13.730Z,98548.64
2023-04-22T14:25:30.101Z,98540.59
2023-04-22T14:28:48.264Z,98539.78
2023-04-22T14:32:04.668Z,98540.03
2023-04-22T14:35:21.111Z,98543.98
2023-04-22T14:38:37.348Z,98539.69
2023-04-22T14:41:53.683Z,98538.39
2023-04-22T14:45:10.443Z,98538.15
2023-04-22T14:48:28.497Z,98533.83
2023-04-22T14:51:44.750Z,98537.72
2023-04-22T14:55:05.935Z,98528.83
2023-04-22T14:58:19.150Z,98526.64
2023-04-22T15:01:36.895Z,98525.59
2023-04-22T15:04:53.674Z,98527.13
2023-04-22T15:08:10.416Z,98519.08
2023-04-22T15:11:26.856Z,98532.16
2023-04-22T15:14:44.035Z,98527.13
2023-04-22T15:18:00.516Z,98522.23
2023-04-22T15:21:19.920Z,98518.06
2023-04-22T15:24:36.748Z,98507.78
2023-04-22T15:27:54.144Z,98519.02
2023-04-22T15:31:12.683Z,98515.50
2023-04-22T15:34:29.423Z,98512.60
2023-04-22T15:37:46.066Z,98515.50
2023-04-22T15:41:02.392Z,98521.95
2023-04-22T15:44:18.818Z,98518.33
2023-04-22T15:47:36.968Z,98511.58
2023-04-22T15:50:53.311Z,98511.23
2023-04-22T15:54:09.755Z,98509.36
2023-04-22T15:57:25.688Z,98510.89
2023-04-22T16:00:42.232Z,98506.58
2023-04-22T16:04:00.489Z,98504.72
2023-04-22T16:07:19.190Z,98504.63
2023-04-22T16:10:35.997Z,98505.33
2023-04-22T16:13:52.348Z,98504.73
2023-04-22T16:17:09.433Z,98505.58
2023-04-22T16:20:25.741Z,98496.14
2023-04-22T16:23:42.417Z,98499.28
2023-04-22T16:26:59.257Z,98495.20
2023-04-22T16:30:18.594Z,98491.55
2023-04-22T16:33:35.899Z,98506.50
2023-04-22T16:36:52.186Z,98503.47
2023-04-22T16:40:09.978Z,98498.59
2023-04-22T16:43:26.324Z,98489.16
2023-04-22T16:46:42.809Z,98490.45
2023-04-22T16:49:59.808Z,98496.27
2023-04-22T16:53:16.379Z,98492.42
2023-04-22T16:56:33.884Z,98490.20
2023-04-22T16:59:50.261Z,98486.13
2023-04-22T17:03:07.188Z,98483.34
2023-04-22T17:06:23.598Z,98480.06
2023-04-22T17:09:39.981Z,98476.82
2023-04-22T17:12:56.587Z,98493.36
2023-04-22T17:16:13.373Z,98492.45
2023-04-22T17:19:30.185Z,98491.27
2023-04-22T17:22:46.900Z,98484.19
2023-04-22T17:26:02.939Z,98488.59
2023-04-22T17:29:21.109Z,98492.55
2023-04-22T17:32:37.965Z,98493.84
2023-04-22T17:35:54.846Z,98489.05
2023-04-22T17:39:11.086Z,98486.82
2023-04-22T17:42:38.778Z,98486.13
2023-04-22T17:45:45.931Z,98494.05
2023-04-22T17:49:02.626Z,98493.30
2023-04-22T17:52:19.237Z,98504.45
2023-04-22T17:55:40.878Z,98508.65
2023-04-22T17:58:57.688Z,98505.25
2023-04-22T18:02:14.450Z,98508.60
2023-04-22T18:05:31.656Z,98509.31
2023-04-22T18:08:48.119Z,98507.08
2023-04-22T18:12:05.521Z,98510.09
2023-04-22T18:15:23.966Z,98517.52
2023-04-22T18:18:40.957Z,98515.52
2023-04-22T18:22:00.281Z,98515.62
2023-04-22T18:25:16.936Z,98514.41
2023-04-22T18:28:33.435Z,98518.36
2023-04-22T18:31:50.095Z,98520.33
2023-04-22T18:35:06.822Z,98527.01
2023-04-22T18:38:23.933Z,98525.60
2023-04-22T18:41:40.958Z,98521.09
2023-04-22T18:44:57.607Z,98522.89
2023-04-22T18:48:14.136Z,98517.35
2023-04-22T18:51:31.010Z,98514.73
2023-04-22T18:54:47.979Z,98521.94
2023-04-22T18:58:04.303Z,98515.77
2023-04-22T19:01:20.849Z,98516.46
2023-04-22T19:04:39.351Z,98518.82
2023-04-22T19:07:56.616Z,98515.34
2023-04-22T19:11:13.834Z,98515.34
2023-04-22T19:14:31.848Z,98514.73
2023-04-22T19:17:49.334Z,98518.51
2023-04-22T19:21:08.074Z,98506.83
2023-04-22T19:24:25.056Z,98512.46
2023-04-22T19:27:41.907Z,98502.42
2023-04-22T19:31:00.942Z,98508.86
2023-04-22T19:34:16.385Z,98501.88
2023-04-22T19:37:32.539Z,98503.32
2023-04-22T19:40:49.273Z,98503.38
2023-04-22T19:44:06.681Z,98504.47
2023-04-22T19:47:24.821Z,98497.06
2023-04-22T19:50:43.624Z,98509.16
2023-04-22T19:54:02.798Z,98502.77
2023-04-22T19:57:21.482Z,98497.88
2023-04-22T20:00:40.078Z,98501.80
2023-04-22T20:03:58.447Z,98503.07
2023-04-22T20:07:17.704Z,98495.90
2023-04-22T20:10:36.215Z,98506.38
2023-04-22T20:13:56.533Z,98493.84
2023-04-22T20:17:14.559Z,98498.34
2023-04-22T20:20:31.914Z,98491.70
2023-04-22T20:23:50.064Z,98489.45
2023-04-22T20:27:06.698Z,98488.89
2023-04-22T20:30:27.317Z,98485.05
2023-04-22T20:33:44.264Z,98481.18
2023-04-22T20:37:03.090Z,98471.75
2023-04-22T20:40:24.606Z,98468.22
2023-04-22T20:43:42.092Z,98482.31
2023-04-22T20:46:59.846Z,98464.33
2023-04-22T20:50:18.709Z,98466.94
2023-04-22T20:53:35.717Z,98461.32
2023-04-22T20:56:52.703Z,98474.58
2023-04-22T21:00:11.129Z,98464.44
2023-04-22T21:03:30.036Z,98463.20
2023-04-22T21:06:47.968Z,98464.38
2023-04-22T21:10:05.515Z,98455.53
2023-04-22T21:13:23.450Z,98449.35
2023-04-22T21:16:42.350Z,98458.95
2023-04-22T21:20:00.770Z,98456.88
2023-04-22T21:23:18.102Z,98449.64
2023-04-22T21:26:35.645Z,98447.95
2023-04-22T21:29:53.995Z,98450.33
2023-04-22T21:33:12.795Z,98453.50
2023-04-22T21:36:30.786Z,98456.92
2023-04-22T21:39:48.041Z,98453.63
2023-04-22T21:43:05.412Z,98451.73
2023-04-22T21:46:23.014Z,98451.73
2023-04-22T21:49:39.497Z,98457.16
2023-04-22T21:52:56.528Z,98452.36
2023-04-22T21:56:13.290Z,98441.90
2023-04-22T21:59:30.104Z,98454.08
2023-04-22T22:02:46.567Z,98447.59
2023-04-22T22:06:03.157Z,98456.22
2023-04-22T22:09:19.747Z,98450.04
2023-04-22T22:12:37.131Z,98454.91
2023-04-22T22:15:55.919Z,98447.48
2023-04-22T22:19:12.678Z,98458.36
2023-04-22T22:22:29.105Z,98452.11
2023-04-22T22:25:45.554Z,98455.09
2023-04-22T22:29:02.643Z,98454.27
2023-04-22T22:32:19.022Z,98457.97
2023-04-22T22:35:35.646Z,98460.25
2023-04-22T22:38:51.989Z,98460.18
2023-04-22T22:42:08.455Z,98463.30
2023-04-22T22:45:25.328Z,98457.95
2023-04-22T22:48:42.187Z,98462.22
2023-04-22T22:51:58.653Z,98455.53
2023-04-22T22:55:16.415Z,98451.83
2023-04-22T22:58:35.107Z,98456.91
2023-04-22T23:01:51.555Z,98461.91
2023-04-22T23:05:10.512Z,98458.93
2023-04-22T23:08:26.466Z,98464.23
2023-04-22T23:11:42.818Z,98457.57
2023-04-22T23:14:59.077Z,98466.16
2023-04-22T23:18:18.432Z,98456.77
2023-04-22T23:21:36.773Z,98451.09
2023-04-22T23:24:55.120Z,98455.56
2023-04-22T23:28:13.649Z,98458.54
2023-04-22T23:31:31.285Z,98452.88
2023-04-22T23:34:52.019Z,98449.95
2023-04-22T23:38:09.851Z,98451.05
2023-04-22T23:41:26.547Z,98445.84
2023-04-22T23:44:43.121Z,98454.13
2023-04-22T23:48:00.051Z,98448.27
2023-04-22T23:51:17.798Z,98442.70
2023-04-22T23:54:36.394Z,98445.97
2023-04-22T23:57:54.928Z,98443.69
